createdAt,value
2023-03-12T00:01:23.016Z,1.40
2023-03-12T00:03:49.639Z,1.35
2023-03-12T00:06:16.838Z,1.30
2023-03-12T00:08:43.212Z,1.17
2023-03-12T00:11:10.855Z,1.33
2023-03-12T00:13:37.208Z,2.20
2023-03-12T00:16:04.846Z,1.63
2023-03-12T00:18:31.334Z,1.30
2023-03-12T00:20:57.773Z,1.50
2023-03-12T00:23:24.127Z,1.55
2023-03-12T00:25:50.401Z,1.40
2023-03-12T00:28:16.887Z,1.50
2023-03-12T00:30:44.306Z,1.30
2023-03-12T00:33:11.366Z,1.45
2023-03-12T00:35:38.250Z,1.45
2023-03-12T00:38:04.741Z,1.50
2023-03-12T00:40:31.084Z,1.40
2023-03-12T00:42:57.394Z,1.60
2023-03-12T00:45:23.686Z,1.52
2023-03-12T00:47:50.061Z,1.95
2023-03-12T00:50:16.432Z,1.30
2023-03-12T00:52:42.873Z,1.40
2023-03-12T00:55:09.294Z,1.55
2023-03-12T00:57:35.768Z,1.50
2023-03-12T01:00:02.177Z,1.50
2023-03-12T01:02:28.501Z,1.70
2023-03-12T01:04:54.836Z,1.60
2023-03-12T01:07:21.178Z,1.33
2023-03-12T01:09:47.446Z,1.50
2023-03-12T01:12:13.740Z,1.38
2023-03-12T01:14:40.022Z,1.25
2023-03-12T01:17:06.335Z,1.50
2023-03-12T01:19:32.698Z,1.13
2023-03-12T01:21:59.000Z,1.60
2023-03-12T01:24:25.496Z,1.98
2023-03-12T01:26:51.831Z,1.60
2023-03-12T01:29:18.264Z,1.50
2023-03-12T01:31:44.963Z,1.20
2023-03-12T01:34:12.422Z,1.67
2023-03-12T01:36:38.743Z,1.42
2023-03-12T01:39:05.145Z,1.33
2023-03-12T01:41:35.302Z,1.35
2023-03-12T01:44:03.717Z,1.60
2023-03-12T01:46:38.250Z,2.20
2023-03-12T01:49:09.629Z,1.70
2023-03-12T01:51:54.335Z,1.80
2023-03-12T01:54:27.002Z,1.73
2023-03-12T01:56:54.969Z,2.28
2023-03-12T01:59:31.781Z,1.60
2023-03-12T02:01:58.319Z,1.60
2023-03-12T02:04:25.932Z,1.50
2023-03-12T02:07:04.295Z,1.35
2023-03-12T02:09:34.780Z,1.40
2023-03-12T02:12:01.360Z,1.80
2023-03-12T02:14:27.772Z,1.50
2023-03-12T02:16:55.291Z,1.58
2023-03-12T02:19:24.645Z,2.03
2023-03-12T02:21:51.050Z,1.30
2023-03-12T02:24:35.710Z,1.70
2023-03-12T02:27:02.500Z,1.77
2023-03-12T02:29:29.365Z,1.45
2023-03-12T02:31:56.746Z,1.63
2023-03-12T02:34:23.165Z,1.50
2023-03-12T02:36:50.085Z,1.60
2023-03-12T02:39:16.679Z,1.13
2023-03-12T02:41:45.231Z,1.63
2023-03-12T02:44:13.746Z,1.80
2023-03-12T02:46:44.569Z,1.50
2023-03-12T02:49:14.826Z,1.38
2023-03-12T02:51:41.916Z,1.70
2023-03-12T02:54:09.066Z,2.05
2023-03-12T02:56:36.951Z,1.70
2023-03-12T02:59:04.530Z,1.38
2023-03-12T03:01:33.966Z,1.70
2023-03-12T03:04:04.084Z,1.40
2023-03-12T03:06:31.144Z,1.70
2023-03-12T03:08:57.567Z,1.83
2023-03-12T03:11:24.747Z,1.55
2023-03-12T03:13:51.490Z,1.48
2023-03-12T03:16:18.032Z,1.67
2023-03-12T03:18:44.304Z,1.48
2023-03-12T03:21:10.984Z,1.40
2023-03-12T03:23:37.498Z,1.70
2023-03-12T03:26:03.857Z,1.45
2023-03-12T03:28:30.585Z,1.80
2023-03-12T03:30:58.269Z,1.80
2023-03-12T03:33:25.162Z,1.50
2023-03-12T03:35:51.766Z,1.45
2023-03-12T03:38:18.076Z,1.75
2023-03-12T03:40:44.490Z,1.80
2023-03-12T03:43:10.861Z,1.70
2023-03-12T03:45:37.416Z,1.55
2023-03-12T03:48:03.839Z,1.50
2023-03-12T03:50:30.186Z,1.50
2023-03-12T03:52:56.474Z,1.50
2023-03-12T03:55:22.918Z,1.60
2023-03-12T03:57:49.266Z,1.38
2023-03-12T04:00:17.858Z,1.30
2023-03-12T04:02:44.566Z,1.58
2023-03-12T04:05:11.521Z,1.58
2023-03-12T04:07:37.917Z,1.50
2023-03-12T04:10:04.730Z,1.60
2023-03-12T04:12:31.155Z,1.60
2023-03-12T04:14:57.451Z,1.40
2023-03-12T04:17:23.782Z,1.30
2023-03-12T04:19:50.137Z,1.42
2023-03-12T04:22:16.455Z,1.50
2023-03-12T04:24:42.855Z,1.60
2023-03-12T04:27:09.155Z,1.50
2023-03-12T04:29:35.534Z,1.48
2023-03-12T04:32:02.045Z,1.50
2023-03-12T04:34:28.365Z,1.50
2023-03-12T04:36:54.666Z,1.20
2023-03-12T04:39:21.015Z,1.30
2023-03-12T04:41:47.673Z,1.30
2023-03-12T04:44:14.781Z,1.40
2023-03-12T04:46:41.776Z,1.40
2023-03-12T04:49:08.746Z,1.48
2023-03-12T04:51:35.040Z,1.42
2023-03-12T04:54:01.347Z,1.20
2023-03-12T04:56:27.724Z,1.60
2023-03-12T04:58:54.052Z,1.17
2023-03-12T05:01:25.669Z,1.38
2023-03-12T05:03:52.297Z,1.60
2023-03-12T05:06:19.659Z,1.90
2023-03-12T05:08:46.211Z,1.55
2023-03-12T05:11:12.806Z,1.40
2023-03-12T05:13:39.116Z,1.20
2023-03-12T05:16:05.796Z,1.30
2023-03-12T05:18:32.622Z,1.40
2023-03-12T05:21:03.894Z,1.20
2023-03-12T05:23:30.269Z,1.42
2023-03-12T05:25:56.790Z,1.13
2023-03-12T05:28:27.802Z,1.40
2023-03-12T05:30:54.979Z,1.27
2023-03-12T05:33:21.650Z,1.60
2023-03-12T05:35:48.102Z,1.30
2023-03-12T05:38:14.441Z,1.50
2023-03-12T05:40:40.765Z,1.10
2023-03-12T05:43:07.052Z,1.48
2023-03-12T05:45:33.895Z,1.10
2023-03-12T05:48:00.256Z,1.40
2023-03-12T05:50:26.711Z,1.30
2023-03-12T05:52:53.044Z,1.40
2023-03-12T05:55:19.365Z,1.42
2023-03-12T05:57:45.717Z,1.27
2023-03-12T06:00:13.759Z,1.10
2023-03-12T06:02:40.467Z,1.00
2023-03-12T06:05:07.421Z,1.20
2023-03-12T06:07:33.751Z,1.02
2023-03-12T06:10:00.337Z,1.27
2023-03-12T06:12:26.597Z,1.45
2023-03-12T06:14:52.876Z,1.27
2023-03-12T06:17:19.244Z,1.60
2023-03-12T06:19:45.644Z,1.38
2023-03-12T06:22:12.086Z,1.02
2023-03-12T06:24:38.482Z,0.90
2023-03-12T06:27:05.158Z,1.20
2023-03-12T06:29:31.478Z,1.40
2023-03-12T06:31:57.829Z,1.05
2023-03-12T06:34:24.221Z,1.00
2023-03-12T06:36:50.529Z,1.33
2023-03-12T06:39:16.965Z,1.33
2023-03-12T06:41:43.243Z,1.25
2023-03-12T06:44:09.612Z,0.98
2023-03-12T06:46:36.997Z,1.02
2023-03-12T06:49:03.675Z,0.98
2023-03-12T06:51:30.045Z,1.35
2023-03-12T06:53:56.599Z,0.95
2023-03-12T06:56:22.849Z,1.13
2023-03-12T06:58:49.220Z,1.10
2023-03-12T07:01:15.517Z,1.23
2023-03-12T07:03:42.031Z,1.00
2023-03-12T07:06:18.543Z,1.13
2023-03-12T07:11:11.425Z,1.00
2023-03-12T07:13:38.068Z,1.38
2023-03-12T07:16:04.647Z,1.13
2023-03-12T07:18:31.477Z,0.90
2023-03-12T07:20:57.884Z,1.00
2023-03-12T07:23:24.315Z,0.93
2023-03-12T07:25:51.034Z,0.80
2023-03-12T07:28:17.885Z,1.50
2023-03-12T07:30:50.092Z,1.23
2023-03-12T07:33:17.570Z,0.95
2023-03-12T07:35:44.139Z,1.10
2023-03-12T07:38:10.455Z,1.00
2023-03-12T07:40:36.794Z,1.27
2023-03-12T07:43:04.228Z,1.10
2023-03-12T07:45:30.598Z,1.30
2023-03-12T07:47:57.012Z,1.30
2023-03-12T07:50:23.683Z,1.38
2023-03-12T07:52:50.092Z,1.40
2023-03-12T07:55:16.783Z,1.63
2023-03-12T07:57:43.249Z,1.58
2023-03-12T08:00:10.957Z,1.33
2023-03-12T08:02:37.630Z,1.50
2023-03-12T08:05:04.144Z,1.20
2023-03-12T08:07:32.390Z,1.35
2023-03-12T08:09:59.450Z,1.60
2023-03-12T08:12:25.730Z,1.20
2023-03-12T08:14:52.096Z,1.13
2023-03-12T08:17:18.595Z,1.20
2023-03-12T08:19:44.923Z,1.35
2023-03-12T08:22:11.335Z,1.25
2023-03-12T08:24:37.799Z,1.60
2023-03-12T08:27:04.149Z,1.38
2023-03-12T08:29:30.513Z,1.30
2023-03-12T08:32:04.599Z,1.48
2023-03-12T08:34:31.606Z,1.40
2023-03-12T08:36:58.003Z,1.38
2023-03-12T08:39:24.273Z,1.20
2023-03-12T08:41:55.187Z,1.33
2023-03-12T08:44:22.882Z,1.33
2023-03-12T08:46:49.193Z,1.00
2023-03-12T08:49:15.564Z,1.10
2023-03-12T08:51:41.893Z,1.20
2023-03-12T08:54:09.246Z,1.50
2023-03-12T08:56:38.676Z,1.20
2023-03-12T08:59:05.036Z,1.27
2023-03-12T09:01:31.589Z,1.95
2023-03-12T09:03:58.042Z,1.30
2023-03-12T09:06:24.374Z,1.23
2023-03-12T09:08:51.790Z,1.40
2023-03-12T09:11:18.724Z,1.17
2023-03-12T09:14:14.935Z,1.10
2023-03-12T09:16:31.440Z,1.52
2023-03-12T09:18:57.818Z,1.23
2023-03-12T09:21:24.106Z,1.25
2023-03-12T09:23:50.422Z,1.40
2023-03-12T09:26:16.947Z,1.50
2023-03-12T09:28:44.812Z,1.70
2023-03-12T09:31:11.858Z,1.50
2023-03-12T09:33:38.871Z,1.35
2023-03-12T09:36:05.313Z,1.35
2023-03-12T09:38:32.231Z,1.23
2023-03-12T09:40:58.840Z,1.50
2023-03-12T09:43:25.337Z,1.25
2023-03-12T09:45:52.421Z,1.70
2023-03-12T09:48:28.791Z,1.60
2023-03-12T09:53:21.298Z,1.85
2023-03-12T09:55:49.032Z,1.40
2023-03-12T09:58:32.264Z,2.05
2023-03-12T10:01:01.840Z,1.67
2023-03-12T10:03:37.261Z,1.52
2023-03-12T10:06:10.801Z,2.03
2023-03-12T10:08:56.157Z,1.58
2023-03-12T10:11:29.841Z,1.70
2023-03-12T10:14:02.443Z,1.90
2023-03-12T10:16:31.775Z,2.00
2023-03-12T10:19:17.274Z,2.22
2023-03-12T10:21:46.659Z,1.90
2023-03-12T10:24:25.168Z,2.08
2023-03-12T10:26:53.927Z,1.80
2023-03-12T10:29:23.698Z,1.90
2023-03-12T10:31:56.577Z,2.30
2023-03-12T10:34:32.266Z,2.47
2023-03-12T10:36:59.756Z,2.03
2023-03-12T10:39:26.170Z,2.45
2023-03-12T10:41:53.147Z,2.15
2023-03-12T10:44:24.024Z,2.25
2023-03-12T10:47:09.304Z,2.83
2023-03-12T10:49:36.423Z,2.38
2023-03-12T10:52:14.574Z,2.25
2023-03-12T10:54:41.388Z,2.00
2023-03-12T10:57:08.180Z,2.17
2023-03-12T10:59:36.574Z,2.40
2023-03-12T11:02:04.089Z,2.05
2023-03-12T11:04:31.986Z,2.13
2023-03-12T11:07:17.761Z,2.63
2023-03-12T11:09:44.332Z,2.35
2023-03-12T11:12:27.426Z,2.40
2023-03-12T11:14:53.825Z,2.03
2023-03-12T11:17:21.979Z,2.08
2023-03-12T11:19:48.361Z,2.72
2023-03-12T11:22:26.458Z,2.08
2023-03-12T11:24:57.320Z,2.15
2023-03-12T11:27:30.434Z,2.45
2023-03-12T11:29:56.968Z,1.83
2023-03-12T11:32:26.087Z,2.47
2023-03-12T11:34:53.120Z,2.30
2023-03-12T11:37:40.373Z,2.38
2023-03-12T11:40:10.157Z,1.95
2023-03-12T11:42:44.832Z,2.60
2023-03-12T11:45:21.743Z,2.55
2023-03-12T11:48:03.524Z,2.50
2023-03-12T11:50:33.003Z,2.53
2023-03-12T11:53:08.519Z,2.75
2023-03-12T11:55:38.001Z,2.03
2023-03-12T11:58:25.367Z,2.45
2023-03-12T12:01:00.140Z,2.60
2023-03-12T12:03:35.798Z,2.33
2023-03-12T12:06:05.407Z,2.45
2023-03-12T12:08:50.753Z,2.47
2023-03-12T12:11:36.000Z,2.22
2023-03-12T12:14:02.331Z,2.72
2023-03-12T12:16:35.014Z,2.05
2023-03-12T12:19:15.870Z,2.20
2023-03-12T12:22:01.134Z,2.17
2023-03-12T12:24:30.742Z,2.40
2023-03-12T12:27:03.760Z,2.10
2023-03-12T12:29:43.271Z,2.30
2023-03-12T12:32:13.910Z,2.38
2023-03-12T12:34:45.982Z,2.28
2023-03-12T12:37:15.174Z,2.13
2023-03-12T12:39:47.028Z,2.28
2023-03-12T12:42:16.555Z,2.17
2023-03-12T12:44:50.895Z,2.88
2023-03-12T12:47:19.625Z,2.42
2023-03-12T12:49:54.303Z,2.45
2023-03-12T12:52:21.606Z,2.30
2023-03-12T12:54:53.682Z,2.05
2023-03-12T12:57:30.843Z,2.45
2023-03-12T13:00:16.212Z,2.50
2023-03-12T13:02:44.696Z,2.85
2023-03-12T13:05:23.109Z,2.78
2023-03-12T13:07:49.455Z,2.65
2023-03-12T13:10:36.014Z,2.85
2023-03-12T13:13:35.075Z,2.85
2023-03-12T13:16:18.694Z,2.10
2023-03-12T13:18:58.846Z,2.78
2023-03-12T13:21:44.830Z,3.13
2023-03-12T13:24:23.076Z,2.45
2023-03-12T13:26:58.585Z,2.47
2023-03-12T13:29:36.017Z,2.63
2023-03-12T13:32:02.671Z,2.80
2023-03-12T13:34:30.734Z,3.33
2023-03-12T13:36:59.392Z,3.00
2023-03-12T13:39:31.959Z,2.60
2023-03-12T13:41:59.026Z,2.20
2023-03-12T13:44:31.516Z,2.72
2023-03-12T13:47:02.546Z,2.53
2023-03-12T13:49:34.914Z,2.92
2023-03-12T13:52:08.506Z,2.53
2023-03-12T13:54:35.333Z,2.90
2023-03-12T13:57:09.777Z,4.03
2023-03-12T13:59:36.702Z,3.17
2023-03-12T14:02:05.517Z,2.95
2023-03-12T14:04:39.734Z,2.85
2023-03-12T14:07:13.436Z,2.97
2023-03-12T14:09:45.879Z,3.10
2023-03-12T14:12:15.684Z,2.90
2023-03-12T14:14:57.708Z,3.00
2023-03-12T14:17:25.198Z,2.58
2023-03-12T14:19:56.114Z,3.22
2023-03-12T14:22:24.054Z,3.30
2023-03-12T14:24:53.068Z,3.00
2023-03-12T14:27:22.128Z,3.38
2023-03-12T14:30:10.453Z,2.78
2023-03-12T14:32:37.790Z,3.35
2023-03-12T14:35:16.956Z,3.40
2023-03-12T14:37:45.143Z,3.58
2023-03-12T14:40:35.668Z,2.92
2023-03-12T14:43:02.000Z,3.50
2023-03-12T14:45:28.403Z,3.15
2023-03-12T14:47:58.664Z,3.60
2023-03-12T14:50:32.441Z,3.30
2023-03-12T14:53:13.166Z,3.10
2023-03-12T14:55:39.521Z,3.95
2023-03-12T14:58:07.014Z,3.80
2023-03-12T15:00:33.393Z,3.20
2023-03-12T15:03:02.775Z,3.58
2023-03-12T15:05:29.226Z,3.03
2023-03-12T15:07:58.268Z,3.40
2023-03-12T15:10:26.162Z,3.47
2023-03-12T15:12:54.394Z,3.80
2023-03-12T15:15:30.558Z,3.53
2023-03-12T15:17:57.888Z,3.75
2023-03-12T15:20:25.391Z,3.33
2023-03-12T15:22:52.260Z,2.80
2023-03-12T15:25:22.184Z,3.33
2023-03-12T15:27:48.793Z,3.00
2023-03-12T15:30:23.439Z,2.92
2023-03-12T15:33:04.820Z,3.55
2023-03-12T15:35:31.685Z,3.17
2023-03-12T15:37:58.234Z,3.25
2023-03-12T15:40:28.703Z,3.08
2023-03-12T15:42:57.657Z,2.95
2023-03-12T15:45:25.893Z,3.22
2023-03-12T15:47:53.350Z,3.47
2023-03-12T15:50:42.701Z,2.83
2023-03-12T15:53:11.831Z,3.65
2023-03-12T15:55:38.668Z,3.33
2023-03-12T15:58:25.160Z,2.88
2023-03-12T16:00:52.187Z,2.95
2023-03-12T16:03:20.124Z,3.33
2023-03-12T16:05:46.917Z,3.65
2023-03-12T16:08:15.805Z,3.35
2023-03-12T16:10:42.444Z,3.78
2023-03-12T16:13:12.629Z,4.95
2023-03-12T16:15:39.213Z,7.00
2023-03-12T16:18:05.820Z,7.38
2023-03-12T16:20:32.206Z,6.63
2023-03-12T16:22:58.774Z,6.07
2023-03-12T16:25:25.764Z,5.68
2023-03-12T16:27:54.546Z,5.07
2023-03-12T16:30:23.888Z,4.60
2023-03-12T16:32:50.301Z,4.72
2023-03-12T16:35:18.707Z,4.50
2023-03-12T16:37:45.634Z,4.63
2023-03-12T16:40:14.462Z,4.80
2023-03-12T16:42:47.214Z,4.97
2023-03-12T16:45:15.928Z,4.72
2023-03-12T16:47:42.568Z,3.90
2023-03-12T16:50:19.235Z,4.40
2023-03-12T16:52:51.008Z,5.05
2023-03-12T16:55:17.864Z,4.32
2023-03-12T16:57:49.774Z,3.88
2023-03-12T17:00:19.127Z,4.35
2023-03-12T17:02:45.661Z,3.95
2023-03-12T17:05:13.186Z,4.63
2023-03-12T17:07:39.563Z,4.43
2023-03-12T17:10:06.936Z,4.38
2023-03-12T17:12:36.628Z,4.00
2023-03-12T17:15:04.899Z,4.68
2023-03-12T17:17:31.790Z,4.63
2023-03-12T17:20:00.390Z,3.88
2023-03-12T17:22:27.714Z,4.18
2023-03-12T17:24:54.182Z,4.35
2023-03-12T17:27:20.462Z,4.82
2023-03-12T17:29:46.772Z,4.47
2023-03-12T17:32:13.269Z,4.78
2023-03-12T17:34:39.527Z,4.03
2023-03-12T17:37:05.999Z,4.88
2023-03-12T17:39:33.618Z,4.85
2023-03-12T17:41:59.890Z,4.43
2023-03-12T17:44:29.424Z,4.72
2023-03-12T17:46:59.607Z,4.35
2023-03-12T17:49:26.624Z,5.13
2023-03-12T17:51:53.008Z,4.25
2023-03-12T17:54:19.622Z,4.60
2023-03-12T17:56:46.110Z,4.63
2023-03-12T17:59:12.528Z,4.88
2023-03-12T18:01:38.883Z,4.40
2023-03-12T18:04:05.293Z,3.90
2023-03-12T18:06:31.595Z,4.43
2023-03-12T18:08:57.965Z,4.60
2023-03-12T18:11:24.654Z,4.25
2023-03-12T18:13:50.986Z,4.65
2023-03-12T18:16:17.671Z,4.07
2023-03-12T18:18:43.997Z,4.43
2023-03-12T18:21:10.352Z,4.28
2023-03-12T18:23:36.749Z,4.20
2023-03-12T18:26:03.582Z,4.80
2023-03-12T18:28:30.130Z,5.22
2023-03-12T18:30:56.643Z,4.80
2023-03-12T18:33:23.018Z,4.45
2023-03-12T18:35:49.626Z,4.22
2023-03-12T18:38:15.994Z,4.50
2023-03-12T18:40:42.361Z,4.22
2023-03-12T18:43:08.713Z,4.80
2023-03-12T18:45:35.047Z,4.60
2023-03-12T18:48:01.640Z,5.45
2023-03-12T18:50:27.996Z,4.40
2023-03-12T18:52:54.323Z,4.57
2023-03-12T18:55:20.667Z,3.55
2023-03-12T18:57:47.940Z,5.00
2023-03-12T19:00:17.601Z,4.32
2023-03-12T19:02:46.524Z,4.10
2023-03-12T19:05:14.039Z,4.40
2023-03-12T19:07:40.392Z,4.18
2023-03-12T19:10:07.223Z,4.28
2023-03-12T19:12:45.522Z,4.45
2023-03-12T19:15:17.003Z,4.40
2023-03-12T19:17:43.401Z,4.32
2023-03-12T19:20:10.123Z,4.50
2023-03-12T19:22:36.447Z,5.05
2023-03-12T19:25:02.796Z,4.80
2023-03-12T19:27:30.252Z,4.25
2023-03-12T19:29:56.621Z,3.92
2023-03-12T19:32:25.334Z,4.45
2023-03-12T19:34:54.269Z,4.32
2023-03-12T19:37:22.047Z,4.82
2023-03-12T19:39:48.440Z,4.30
2023-03-12T19:42:14.811Z,4.03
2023-03-12T19:44:42.211Z,4.00
2023-03-12T19:47:08.994Z,4.05
2023-03-12T19:49:35.629Z,4.85
2023-03-12T19:52:02.456Z,4.30
2023-03-12T19:54:28.791Z,4.43
2023-03-12T19:56:55.231Z,4.00
2023-03-12T19:59:21.934Z,4.07
2023-03-12T20:01:48.310Z,5.20
2023-03-12T20:04:14.666Z,4.28
2023-03-12T20:06:40.962Z,4.50
2023-03-12T20:09:07.270Z,4.50
2023-03-12T20:11:35.649Z,3.80
2023-03-12T20:14:02.692Z,4.03
2023-03-12T20:16:29.057Z,4.85
2023-03-12T20:18:55.481Z,4.47
2023-03-12T20:21:21.798Z,5.00
2023-03-12T20:23:48.100Z,4.15
2023-03-12T20:26:15.033Z,4.55
2023-03-12T20:28:41.880Z,4.57
2023-03-12T20:31:12.952Z,3.70
2023-03-12T20:33:39.262Z,4.20
2023-03-12T20:36:09.475Z,4.35
2023-03-12T20:38:36.148Z,4.22
2023-03-12T20:41:02.647Z,3.85
2023-03-12T20:43:29.209Z,4.85
2023-03-12T20:45:55.700Z,4.40
2023-03-12T20:48:22.334Z,4.68
2023-03-12T20:50:49.434Z,4.38
2023-03-12T20:53:15.873Z,3.67
2023-03-12T20:55:42.233Z,4.53
2023-03-12T20:58:08.573Z,4.43
2023-03-12T21:00:35.062Z,4.03
2023-03-12T21:03:01.598Z,4.32
2023-03-12T21:05:28.201Z,4.20
2023-03-12T21:07:54.600Z,4.03
2023-03-12T21:10:21.204Z,3.38
2023-03-12T21:12:47.570Z,3.90
2023-03-12T21:15:15.180Z,3.90
2023-03-12T21:17:41.564Z,3.90
2023-03-12T21:20:09.779Z,4.10
2023-03-12T21:22:36.712Z,4.50
2023-03-12T21:25:05.887Z,3.65
2023-03-12T21:27:41.367Z,3.88
2023-03-12T21:30:16.120Z,4.03
2023-03-12T21:32:42.721Z,3.40
2023-03-12T21:35:09.777Z,3.63
2023-03-12T21:37:36.982Z,4.28
2023-03-12T21:40:03.637Z,3.80
2023-03-12T21:42:30.684Z,4.38
2023-03-12T21:44:57.041Z,4.20
2023-03-12T21:47:23.438Z,3.17
2023-03-12T21:49:50.178Z,3.42
2023-03-12T21:52:16.693Z,3.55
2023-03-12T21:54:43.095Z,3.58
2023-03-12T21:57:09.466Z,3.40
2023-03-12T21:59:35.763Z,3.85
2023-03-12T22:02:02.121Z,3.33
2023-03-12T22:04:28.525Z,3.95
2023-03-12T22:06:56.518Z,3.97
2023-03-12T22:09:23.112Z,3.10
2023-03-12T22:11:49.543Z,4.15
2023-03-12T22:14:16.068Z,3.05
2023-03-12T22:16:42.431Z,3.80
2023-03-12T22:19:09.388Z,3.70
2023-03-12T22:21:35.866Z,3.65
2023-03-12T22:24:02.274Z,3.22
2023-03-12T22:26:28.700Z,3.47
2023-03-12T22:28:56.038Z,3.33
2023-03-12T22:31:23.462Z,3.40
2023-03-12T22:33:49.925Z,3.10
2023-03-12T22:36:17.129Z,3.45
2023-03-12T22:38:43.452Z,3.75
2023-03-12T22:41:15.901Z,3.28
2023-03-12T22:43:42.537Z,3.20
2023-03-12T22:46:08.940Z,3.28
2023-03-12T22:48:36.757Z,3.38
2023-03-12T22:51:03.895Z,2.97
2023-03-12T22:53:30.953Z,3.88
2023-03-12T22:56:01.251Z,2.85
2023-03-12T22:58:27.754Z,3.13
2023-03-12T23:01:05.129Z,2.85
2023-03-12T23:03:31.839Z,3.15
2023-03-12T23:05:58.220Z,2.92
2023-03-12T23:08:24.667Z,2.42
2023-03-12T23:10:54.954Z,2.75
2023-03-12T23:13:22.652Z,2.80
2023-03-12T23:15:49.127Z,3.08
2023-03-12T23:18:15.646Z,2.95
2023-03-12T23:20:42.261Z,3.63
2023-03-12T23:23:08.696Z,3.55
2023-03-12T23:25:35.013Z,3.10
2023-03-12T23:28:01.350Z,3.00
2023-03-12T23:30:27.992Z,3.25
2023-03-12T23:32:54.405Z,3.03
2023-03-12T23:35:20.961Z,2.90
2023-03-12T23:37:50.596Z,2.72
2023-03-12T23:40:17.130Z,2.78
2023-03-12T23:42:43.827Z,2.50
2023-03-12T23:45:11.422Z,2.95
2023-03-12T23:47:38.075Z,3.05
2023-03-12T23:50:04.909Z,2.42
2023-03-12T23:52:31.236Z,2.70
2023-03-12T23:54:57.555Z,2.75
2023-03-12T23:57:23.790Z,2.78
2023-03-12T23:59:50.146Z,3.45
